Time;durP1;ratioP1;P1;durP2;ratioP2;P2;SDS_P1;SDS_P2;PMS_P1;PMS_P2;Temp;Humidity;BMP_temperature;BMP_pressure;BME280_temperature;BME280_humidity;BME280_pressure;Samples;Min_cycle;Max_cycle;Signal;HPM_P1;HPM_P2
2023/05/31 00:02:24;;;;;;;8.35;6.60;;;14.80;99.90;;;;;;5008965;28;20022;-79
2023/05/31 00:04:50;;;;;;;8.38;6.30;;;14.80;99.90;;;;;;5012289;28;20061;-80
2023/05/31 00:07:16;;;;;;;7.63;6.90;;;14.70;99.90;;;;;;5010503;28;20013;-80
2023/05/31 00:09:41;;;;;;;9.82;6.60;;;14.60;99.90;;;;;;5012906;28;20032;-80
2023/05/31 00:12:07;;;;;;;6.90;6.20;;;14.60;99.90;;;;;;5009231;28;20075;-80
2023/05/31 00:14:33;;;;;;;6.93;6.22;;;14.70;99.90;;;;;;5010348;28;20022;-82
2023/05/31 00:16:58;;;;;;;8.05;6.40;;;14.70;99.90;;;;;;5009067;28;20488;-82
2023/05/31 00:19:24;;;;;;;9.93;6.65;;;14.60;99.90;;;;;;5013595;28;20051;-80
2023/05/31 00:21:52;;;;;;;8.93;6.70;;;14.50;99.90;;;;;;5009657;28;20259;-79
2023/05/31 00:24:17;;;;;;;13.88;6.53;;;14.50;99.90;;;;;;5011479;28;20049;-79
2023/05/31 00:26:43;;;;;;;9.43;6.60;;;14.50;99.90;;;;;;5010747;28;20021;-79
2023/05/31 00:29:09;;;;;;;9.88;6.40;;;14.50;99.90;;;;;;5009919;28;20029;-80
2023/05/31 00:31:34;;;;;;;12.85;6.63;;;14.50;99.90;;;;;;5009797;28;20635;-80
2023/05/31 00:34:00;;;;;;;11.23;7.60;;;14.40;99.90;;;;;;5010363;28;20022;-79
2023/05/31 00:36:28;;;;;;;10.35;6.40;;;14.40;99.90;;;;;;5009899;28;20554;-80
2023/05/31 00:38:53;;;;;;;12.02;7.15;;;14.40;99.90;;;;;;5014352;28;20013;-81
2023/05/31 00:41:20;;;;;;;13.27;6.72;;;14.40;99.90;;;;;;5009366;28;20022;-80
2023/05/31 00:43:45;;;;;;;11.02;7.15;;;14.30;99.90;;;;;;5015175;28;20021;-80
2023/05/31 00:46:40;;;;;;;9.77;6.72;;;14.30;99.90;;;;;;5019638;28;20029;-81
2023/05/31 00:49:06;;;;;;;9.68;6.65;;;14.30;99.90;;;;;;4997206;28;20048;-81
2023/05/31 00:51:33;;;;;;;9.85;6.93;;;14.30;99.90;;;;;;5008227;28;20029;-81
2023/05/31 00:54:00;;;;;;;9.77;6.72;;;14.30;99.90;;;;;;5009434;28;20520;-79
2023/05/31 00:56:26;;;;;;;9.57;7.15;;;14.20;99.90;;;;;;5005028;28;20128;-80
2023/05/31 00:58:55;;;;;;;9.82;7.75;;;14.20;99.90;;;;;;5010064;28;20041;-80
2023/05/31 01:01:21;;;;;;;8.80;7.57;;;14.20;99.90;;;;;;5008483;28;20030;-80
2023/05/31 01:03:47;;;;;;;11.35;7.25;;;14.20;99.90;;;;;;5012126;28;20405;-80
2023/05/31 01:06:13;;;;;;;11.27;7.50;;;14.20;99.90;;;;;;5007906;28;20018;-79
2023/05/31 01:08:40;;;;;;;11.43;7.25;;;14.20;99.90;;;;;;5008739;28;20064;-79
2023/05/31 01:11:31;;;;;;;9.85;7.43;;;14.20;99.90;;;;;;5006863;28;20040;-81
2023/05/31 01:14:13;;;;;;;14.10;8.27;;;14.10;99.90;;;;;;5009912;28;20033;-81
2023/05/31 01:16:46;;;;;;;8.65;6.65;;;14.10;99.90;;;;;;5009942;28;20543;-79
2023/05/31 01:19:20;;;;;;;12.25;7.72;;;14.10;99.90;;;;;;5009985;28;20389;-82
2023/05/31 01:21:52;;;;;;;10.30;7.43;;;14.00;99.90;;;;;;5142471;22;20059;-81
2023/05/31 01:24:26;;;;;;;13.55;7.78;;;14.00;99.90;;;;;;5007936;28;20462;-83
2023/05/31 01:26:58;;;;;;;12.90;8.25;;;14.00;99.90;;;;;;5145780;22;20579;-79
2023/05/31 01:29:26;;;;;;;11.68;8.82;;;14.00;99.90;;;;;;5008151;28;20860;-80
2023/05/31 01:31:52;;;;;;;13.85;8.68;;;14.00;99.90;;;;;;5014024;28;20069;-80
2023/05/31 01:34:18;;;;;;;11.45;8.43;;;13.90;99.90;;;;;;5010581;28;20615;-80
2023/05/31 01:36:44;;;;;;;13.40;8.55;;;13.90;99.90;;;;;;5011943;28;20453;-80
2023/05/31 01:39:10;;;;;;;9.40;8.13;;;13.90;99.90;;;;;;5016791;28;20022;-80
2023/05/31 01:41:41;;;;;;;10.93;8.02;;;13.90;99.90;;;;;;5017690;28;20026;-80
2023/05/31 01:44:08;;;;;;;10.20;7.22;;;13.90;99.90;;;;;;5008242;28;20068;-81
2023/05/31 01:46:34;;;;;;;10.90;7.90;;;13.90;99.90;;;;;;5009080;28;20025;-81
2023/05/31 01:49:01;;;;;;;9.70;8.05;;;14.00;99.90;;;;;;5005467;28;20017;-81
2023/05/31 01:51:30;;;;;;;11.75;7.90;;;13.90;99.90;;;;;;5009276;28;20049;-81
2023/05/31 01:53:56;;;;;;;11.77;7.38;;;13.90;99.90;;;;;;5007913;28;20079;-81
2023/05/31 01:56:24;;;;;;;10.15;7.63;;;13.80;99.90;;;;;;5007470;28;20064;-80
2023/05/31 01:58:51;;;;;;;10.52;8.07;;;13.80;99.90;;;;;;5008890;28;20470;-80
2023/05/31 02:01:18;;;;;;;9.77;7.90;;;13.80;99.90;;;;;;5007853;28;20097;-80
2023/05/31 02:03:44;;;;;;;11.65;8.45;;;13.80;99.90;;;;;;5007021;28;20067;-80
2023/05/31 02:06:13;;;;;;;12.25;8.68;;;13.70;99.90;;;;;;5010254;28;20105;-80
2023/05/31 02:08:41;;;;;;;12.82;8.43;;;13.70;99.90;;;;;;5006440;28;20026;-82
2023/05/31 02:11:06;;;;;;;13.52;8.98;;;13.70;99.90;;;;;;5011344;28;20178;-80
2023/05/31 02:13:33;;;;;;;12.57;8.43;;;13.60;99.90;;;;;;5014012;28;20672;-81
2023/05/31 02:15:59;;;;;;;15.05;8.85;;;13.60;99.90;;;;;;5007593;28;20021;-81
2023/05/31 02:18:28;;;;;;;14.05;8.65;;;13.60;99.90;;;;;;5013529;28;20385;-81
2023/05/31 02:20:54;;;;;;;13.77;9.27;;;13.60;99.90;;;;;;5008594;28;20141;-81
2023/05/31 02:23:21;;;;;;;18.08;9.20;;;13.50;99.90;;;;;;5154104;22;20100;-82
2023/05/31 02:25:48;;;;;;;15.13;8.88;;;13.60;99.90;;;;;;5012562;28;20315;-81
2023/05/31 02:28:14;;;;;;;14.93;9.05;;;13.50;99.90;;;;;;5014134;28;20418;-80
2023/05/31 02:30:40;;;;;;;17.50;9.40;;;13.50;99.90;;;;;;5006928;28;20037;-82
2023/05/31 02:33:07;;;;;;;17.27;9.73;;;13.50;99.90;;;;;;5009898;28;20022;-81
2023/05/31 02:35:32;;;;;;;18.20;9.07;;;13.40;99.90;;;;;;5007168;28;20014;-81
2023/05/31 02:37:58;;;;;;;18.38;9.63;;;13.30;99.90;;;;;;5008383;28;20024;-82
2023/05/31 02:40:24;;;;;;;14.32;9.75;;;13.30;99.90;;;;;;5145368;22;21021;-81
2023/05/31 02:42:50;;;;;;;17.17;9.77;;;13.30;99.90;;;;;;5151069;22;20049;-80
2023/05/31 02:45:15;;;;;;;16.52;9.93;;;13.20;99.90;;;;;;5017354;28;20350;-82
2023/05/31 02:47:43;;;;;;;18.95;9.52;;;13.30;99.90;;;;;;5008416;28;20480;-82
2023/05/31 02:50:09;;;;;;;17.60;10.30;;;13.20;99.90;;;;;;5013614;28;20029;-81
2023/05/31 02:52:38;;;;;;;15.20;9.25;;;13.20;99.90;;;;;;5012499;28;20032;-82
2023/05/31 02:55:05;;;;;;;15.85;9.10;;;13.20;99.90;;;;;;5012133;28;20029;-81
2023/05/31 02:57:31;;;;;;;14.50;9.70;;;13.20;99.90;;;;;;5012763;28;20109;-81
2023/05/31 03:00:11;;;;;;;14.93;9.73;;;13.20;99.90;;;;;;5007850;28;20481;-81
2023/05/31 03:02:40;;;;;;;20.55;9.23;;;13.20;99.90;;;;;;5009499;28;20136;-81
2023/05/31 03:05:08;;;;;;;19.42;10.43;;;13.10;99.90;;;;;;5009574;28;20025;-81
2023/05/31 03:07:35;;;;;;;15.70;9.75;;;13.20;99.90;;;;;;5007320;28;20036;-81
2023/05/31 03:10:04;;;;;;;17.88;9.82;;;13.10;99.90;;;;;;5010519;28;20076;-81
2023/05/31 03:12:31;;;;;;;16.33;9.95;;;13.20;99.90;;;;;;5006867;28;20026;-81
2023/05/31 03:14:56;;;;;;;15.95;9.00;;;13.10;99.90;;;;;;5014931;28;20755;-81
2023/05/31 03:17:22;;;;;;;19.48;10.32;;;13.10;99.90;;;;;;5006410;28;20540;-82
2023/05/31 03:19:48;;;;;;;14.63;9.48;;;13.10;99.90;;;;;;5014501;28;20113;-81
2023/05/31 03:22:14;;;;;;;20.48;10.75;;;13.10;99.90;;;;;;5013098;28;20035;-82
2023/05/31 03:24:40;;;;;;;19.88;10.75;;;13.00;99.90;;;;;;5007988;28;20498;-82
2023/05/31 03:27:06;;;;;;;20.95;10.50;;;13.00;99.90;;;;;;5003041;28;20364;-81
2023/05/31 03:29:33;;;;;;;16.35;9.70;;;13.00;99.90;;;;;;5013740;28;20029;-82
2023/05/31 03:31:59;;;;;;;18.73;10.70;;;13.10;99.90;;;;;;5007043;28;20037;-82
2023/05/31 03:34:24;;;;;;;20.25;10.38;;;13.10;99.90;;;;;;5010928;28;20472;-82
2023/05/31 03:36:50;;;;;;;18.95;10.40;;;13.10;99.90;;;;;;5008130;28;20025;-83
2023/05/31 03:39:16;;;;;;;20.80;10.90;;;13.10;99.90;;;;;;5010286;28;20053;-82
2023/05/31 03:41:42;;;;;;;24.20;10.43;;;13.10;99.90;;;;;;5029722;28;20048;-83
2023/05/31 03:44:10;;;;;;;18.65;10.57;;;13.10;99.90;;;;;;5027543;28;20192;-82
2023/05/31 03:46:35;;;;;;;20.02;10.68;;;13.10;99.90;;;;;;5018081;28;20025;-81
2023/05/31 03:49:02;;;;;;;21.92;10.88;;;13.20;99.90;;;;;;5011291;28;20037;-82
2023/05/31 03:51:29;;;;;;;16.45;9.85;;;13.20;99.90;;;;;;5018561;28;20041;-82
2023/05/31 03:53:54;;;;;;;22.27;11.05;;;13.20;99.90;;;;;;5020827;28;20033;-81
2023/05/31 03:56:23;;;;;;;19.55;10.75;;;13.20;99.90;;;;;;5010910;28;20206;-82
2023/05/31 03:58:48;;;;;;;18.67;11.07;;;13.30;99.90;;;;;;5009361;28;20033;-81
2023/05/31 04:01:14;;;;;;;20.33;10.90;;;13.30;99.90;;;;;;5010184;28;20019;-81
2023/05/31 04:03:39;;;;;;;16.83;9.55;;;13.40;99.90;;;;;;5009308;28;20034;-80
2023/05/31 04:06:05;;;;;;;19.15;10.95;;;13.40;99.90;;;;;;5016821;28;20029;-81
2023/05/31 04:08:31;;;;;;;17.20;10.35;;;13.40;99.90;;;;;;5009124;28;20440;-83
2023/05/31 04:10:56;;;;;;;18.48;10.32;;;13.40;99.90;;;;;;5010184;28;20036;-82
2023/05/31 04:13:22;;;;;;;20.92;10.15;;;13.50;99.90;;;;;;5012200;28;20018;-80
2023/05/31 04:15:48;;;;;;;22.33;10.52;;;13.50;99.90;;;;;;5011580;28;20386;-83
2023/05/31 04:18:13;;;;;;;21.85;10.65;;;13.50;99.90;;;;;;5012474;28;20461;-83
2023/05/31 04:20:39;;;;;;;18.20;10.65;;;13.50;99.90;;;;;;5007638;28;20014;-81
2023/05/31 04:23:07;;;;;;;20.45;10.35;;;13.60;99.90;;;;;;5010883;28;20057;-82
2023/05/31 04:25:32;;;;;;;19.00;10.73;;;13.60;99.90;;;;;;5147472;22;20682;-79
2023/05/31 04:27:58;;;;;;;22.23;11.13;;;13.60;99.90;;;;;;5014634;28;20020;-83
2023/05/31 04:30:24;;;;;;;21.67;10.90;;;13.70;99.90;;;;;;5010047;28;20657;-83
2023/05/31 04:32:52;;;;;;;18.23;11.20;;;13.70;99.90;;;;;;5013937;28;20172;-83
2023/05/31 04:35:22;;;;;;;22.40;11.63;;;13.80;99.90;;;;;;5013822;28;20037;-82
2023/05/31 04:37:52;;;;;;;18.55;10.32;;;13.90;99.90;;;;;;5007567;28;20026;-82
2023/05/31 04:40:20;;;;;;;19.48;10.45;;;14.00;99.90;;;;;;5009466;28;20061;-82
2023/05/31 04:42:46;;;;;;;23.10;10.10;;;14.00;99.90;;;;;;5011420;28;20293;-81
2023/05/31 04:45:11;;;;;;;20.42;11.65;;;14.00;99.90;;;;;;5006760;28;20029;-82
2023/05/31 04:47:37;;;;;;;20.63;10.45;;;14.10;99.90;;;;;;5011134;28;20276;-83
2023/05/31 04:50:03;;;;;;;21.60;11.50;;;14.10;99.90;;;;;;5010746;28;20038;-82
2023/05/31 04:52:31;;;;;;;21.67;10.85;;;14.20;99.90;;;;;;5009361;28;20030;-83
2023/05/31 04:54:58;;;;;;;22.23;11.18;;;14.20;99.90;;;;;;5010903;28;20377;-82
2023/05/31 04:57:24;;;;;;;22.40;10.88;;;14.30;99.90;;;;;;5008087;28;20026;-83
2023/05/31 04:59:50;;;;;;;20.75;11.52;;;14.30;99.90;;;;;;5013466;28;20100;-82
2023/05/31 05:02:22;;;;;;;21.13;11.00;;;14.20;99.90;;;;;;5014915;28;20723;-82
2023/05/31 05:04:51;;;;;;;22.73;11.30;;;14.30;99.90;;;;;;5008183;28;20041;-82
2023/05/31 05:07:17;;;;;;;19.20;10.75;;;14.30;99.90;;;;;;5009694;28;20663;-81
2023/05/31 05:09:43;;;;;;;27.05;11.55;;;14.40;99.90;;;;;;5010586;28;20064;-80
2023/05/31 05:12:09;;;;;;;24.83;11.95;;;14.50;99.90;;;;;;5005573;28;20145;-80
2023/05/31 05:14:35;;;;;;;25.63;10.85;;;14.60;99.90;;;;;;5012434;28;20029;-81
2023/05/31 05:17:04;;;;;;;21.15;11.65;;;14.70;99.90;;;;;;5010555;28;20429;-82
2023/05/31 05:19:29;;;;;;;26.75;12.27;;;14.80;99.90;;;;;;5011396;28;20092;-82
2023/05/31 05:21:55;;;;;;;22.00;11.90;;;14.80;99.90;;;;;;5009036;28;20360;-81
2023/05/31 05:24:22;;;;;;;19.67;10.63;;;14.90;99.90;;;;;;5005946;28;20139;-81
2023/05/31 05:26:47;;;;;;;25.58;11.68;;;14.90;99.90;;;;;;5007661;28;20460;-81
2023/05/31 05:29:13;;;;;;;24.70;11.18;;;15.00;99.90;;;;;;5006589;28;20447;-82
2023/05/31 05:31:38;;;;;;;23.67;11.57;;;15.00;99.90;;;;;;5009592;28;20049;-82
2023/05/31 05:34:07;;;;;;;25.52;10.48;;;15.10;99.90;;;;;;5014700;28;20029;-83
2023/05/31 05:36:32;;;;;;;19.65;11.35;;;15.20;99.90;;;;;;5023080;28;20102;-83
2023/05/31 05:39:03;;;;;;;21.42;11.52;;;15.30;99.90;;;;;;5011023;28;20532;-84
2023/05/31 05:41:30;;;;;;;20.63;10.63;;;15.30;99.90;;;;;;5009473;28;20030;-81
2023/05/31 05:43:56;;;;;;;28.65;11.52;;;15.40;99.90;;;;;;5009780;28;20571;-83
2023/05/31 05:46:22;;;;;;;26.45;12.13;;;15.50;99.90;;;;;;5021858;28;20108;-84
2023/05/31 05:48:47;;;;;;;22.73;10.30;;;15.60;99.90;;;;;;5013315;28;20085;-83
2023/05/31 05:51:13;;;;;;;22.33;10.25;;;15.60;99.90;;;;;;5015416;28;20033;-83
2023/05/31 05:53:39;;;;;;;23.05;11.20;;;15.70;99.90;;;;;;5014679;28;20362;-81
2023/05/31 05:56:05;;;;;;;20.85;10.30;;;15.70;99.90;;;;;;5014270;28;20037;-82
2023/05/31 05:58:31;;;;;;;22.23;9.93;;;15.70;99.90;;;;;;5010095;28;20048;-83
2023/05/31 06:00:56;;;;;;;22.73;11.50;;;15.90;99.90;;;;;;5012876;28;20641;-82
2023/05/31 06:03:23;;;;;;;19.42;10.27;;;15.90;99.90;;;;;;5013419;28;20029;-82
2023/05/31 06:05:49;;;;;;;21.77;10.23;;;16.00;99.90;;;;;;5009948;28;20045;-83
2023/05/31 06:08:15;;;;;;;16.42;9.75;;;16.00;99.90;;;;;;5013607;28;20022;-81
2023/05/31 06:10:41;;;;;;;23.70;10.05;;;16.10;99.90;;;;;;5011307;28;20731;-81
2023/05/31 06:13:07;;;;;;;26.95;9.85;;;16.20;99.90;;;;;;5005562;28;20035;-82
2023/05/31 06:15:33;;;;;;;21.42;9.90;;;16.30;99.90;;;;;;5005956;28;20021;-80
2023/05/31 06:17:58;;;;;;;19.45;9.70;;;16.40;99.90;;;;;;5016650;28;20432;-80
2023/05/31 06:20:24;;;;;;;21.10;9.18;;;16.50;99.90;;;;;;5005173;28;20025;-81
2023/05/31 06:22:51;;;;;;;22.10;10.02;;;16.50;99.90;;;;;;5009054;28;20030;-81
2023/05/31 06:25:21;;;;;;;20.55;10.27;;;16.60;99.90;;;;;;5007046;28;20044;-81
2023/05/31 06:27:47;;;;;;;19.38;9.02;;;16.70;99.90;;;;;;5009642;28;20057;-81
2023/05/31 06:30:13;;;;;;;15.32;8.73;;;16.80;99.90;;;;;;5016228;28;20095;-82
2023/05/31 06:32:39;;;;;;;21.48;9.95;;;16.90;99.90;;;;;;5009162;28;20021;-82
2023/05/31 06:35:08;;;;;;;18.92;9.60;;;16.90;99.90;;;;;;5015518;28;20115;-81
2023/05/31 06:37:36;;;;;;;21.13;9.55;;;16.90;99.90;;;;;;5009808;28;20025;-80
2023/05/31 06:40:02;;;;;;;18.23;8.70;;;16.80;99.90;;;;;;5010543;28;20018;-82
2023/05/31 06:42:28;;;;;;;23.17;9.90;;;17.00;99.90;;;;;;5009571;28;20025;-81
2023/05/31 06:44:53;;;;;;;20.73;9.70;;;17.10;99.90;;;;;;5009765;28;20104;-81
2023/05/31 06:47:19;;;;;;;20.08;8.85;;;17.20;99.90;;;;;;5011020;28;20037;-82
2023/05/31 06:49:44;;;;;;;18.33;10.27;;;17.30;99.90;;;;;;5012075;28;20121;-81
2023/05/31 06:52:12;;;;;;;17.73;9.85;;;17.40;99.90;;;;;;5009331;28;20018;-81
2023/05/31 06:54:38;;;;;;;19.88;9.48;;;17.50;99.90;;;;;;5010240;28;20105;-81
2023/05/31 06:57:05;;;;;;;19.05;9.40;;;17.60;99.90;;;;;;5010586;28;20026;-81
2023/05/31 06:59:31;;;;;;;18.50;8.98;;;17.70;99.90;;;;;;5007001;28;20124;-81
2023/05/31 07:01:56;;;;;;;17.58;9.10;;;17.80;99.90;;;;;;5007846;28;20101;-81
2023/05/31 07:04:22;;;;;;;24.30;10.20;;;17.90;99.90;;;;;;5006861;28;20497;-82
2023/05/31 07:06:48;;;;;;;18.67;9.90;;;18.00;99.90;;;;;;5007492;28;20453;-81
2023/05/31 07:09:14;;;;;;;23.10;9.32;;;18.10;99.90;;;;;;5011234;28;20049;-81
2023/05/31 07:11:40;;;;;;;21.63;9.85;;;18.20;99.90;;;;;;5025892;28;20072;-81
2023/05/31 07:14:05;;;;;;;18.25;9.13;;;18.40;99.90;;;;;;5016969;28;20025;-80
2023/05/31 07:16:31;;;;;;;22.85;9.88;;;18.50;99.90;;;;;;5014611;28;20362;-82
2023/05/31 07:18:57;;;;;;;16.40;9.77;;;18.70;99.90;;;;;;5011426;28;20372;-81
2023/05/31 07:21:23;;;;;;;24.25;9.45;;;18.80;99.90;;;;;;5019553;28;20037;-81
2023/05/31 07:23:49;;;;;;;23.73;9.90;;;18.90;99.90;;;;;;5012828;28;20057;-81
2023/05/31 07:26:15;;;;;;;17.92;9.23;;;18.90;99.90;;;;;;5012393;28;20625;-80
2023/05/31 07:28:42;;;;;;;14.98;8.38;;;18.90;99.90;;;;;;5010124;28;20486;-80
2023/05/31 07:31:07;;;;;;;23.73;9.85;;;19.10;99.90;;;;;;5011416;28;20041;-80
2023/05/31 07:33:33;;;;;;;16.58;9.02;;;19.20;99.90;;;;;;5009093;28;20030;-81
2023/05/31 07:36:00;;;;;;;15.50;9.32;;;19.30;99.90;;;;;;5010889;28;20022;-81
2023/05/31 07:38:26;;;;;;;17.58;9.45;;;19.40;99.90;;;;;;5013549;28;20194;-81
2023/05/31 07:40:51;;;;;;;18.02;8.98;;;19.60;99.90;;;;;;5007369;28;20048;-81
2023/05/31 07:43:21;;;;;;;22.58;9.52;;;19.70;99.90;;;;;;5015809;28;20645;-80
2023/05/31 07:45:50;;;;;;;16.95;9.07;;;19.90;99.90;;;;;;5012402;28;20021;-80
2023/05/31 07:48:19;;;;;;;20.10;9.25;;;20.10;99.90;;;;;;5016385;28;20018;-80
2023/05/31 07:50:45;;;;;;;17.50;9.25;;;20.30;99.90;;;;;;5012393;28;20030;-81
2023/05/31 07:53:11;;;;;;;17.45;9.00;;;20.50;99.90;;;;;;5015661;28;20029;-80
2023/05/31 07:55:40;;;;;;;21.05;8.27;;;20.70;99.90;;;;;;5012967;28;20045;-78
2023/05/31 07:58:06;;;;;;;19.15;8.55;;;20.70;99.90;;;;;;5008396;28;20038;-80
2023/05/31 08:00:34;;;;;;;17.85;8.77;;;21.00;99.80;;;;;;5014254;28;20493;-79
2023/05/31 08:03:01;;;;;;;14.73;7.65;;;21.10;99.30;;;;;;5021440;28;20029;-80
2023/05/31 08:05:27;;;;;;;20.67;8.45;;;21.40;98.80;;;;;;5011904;28;20114;-80
2023/05/31 08:07:53;;;;;;;14.60;7.75;;;21.60;98.10;;;;;;5011962;28;20029;-78
2023/05/31 08:10:19;;;;;;;10.95;7.35;;;21.80;98.10;;;;;;5014154;28;20037;-79
2023/05/31 08:12:45;;;;;;;16.98;8.13;;;21.90;97.80;;;;;;5013714;28;20031;-79
2023/05/31 08:15:17;;;;;;;16.73;7.95;;;22.20;97.20;;;;;;5018121;28;20018;-80
2023/05/31 08:17:43;;;;;;;17.13;8.20;;;22.40;96.80;;;;;;5013162;28;20034;-78
2023/05/31 08:20:13;;;;;;;19.45;7.97;;;22.70;95.60;;;;;;5019379;28;20027;-80
2023/05/31 08:22:42;;;;;;;11.00;5.88;;;22.80;95.50;;;;;;5012080;28;20438;-81
2023/05/31 08:25:14;;;;;;;14.77;6.78;;;23.00;95.10;;;;;;5012180;28;20471;-80
2023/05/31 08:27:42;;;;;;;12.60;6.78;;;23.40;94.00;;;;;;5011624;28;20030;-80
2023/05/31 08:30:09;;;;;;;14.30;6.88;;;23.80;93.10;;;;;;5015632;28;20025;-79
2023/05/31 08:32:41;;;;;;;15.52;6.78;;;24.10;92.90;;;;;;5012837;28;20057;-82
2023/05/31 08:35:09;;;;;;;12.17;6.17;;;24.40;92.10;;;;;;5011104;28;20040;-80
2023/05/31 08:37:39;;;;;;;11.68;6.13;;;24.60;90.50;;;;;;5013075;28;20304;-80
2023/05/31 08:40:09;;;;;;;14.25;5.32;;;24.80;90.20;;;;;;5012608;28;20073;-80
2023/05/31 08:42:45;;;;;;;12.07;6.95;;;24.90;88.70;;;;;;5018402;28;20072;-81
2023/05/31 08:45:11;;;;;;;16.27;6.07;;;25.10;88.60;;;;;;5014765;28;20409;-81
2023/05/31 08:47:45;;;;;;;10.18;5.97;;;25.40;86.80;;;;;;5017330;28;20029;-79
2023/05/31 08:50:18;;;;;;;11.18;6.28;;;25.60;85.70;;;;;;5015783;28;20045;-80
2023/05/31 08:52:46;;;;;;;10.02;5.65;;;25.70;85.20;;;;;;5017099;28;20151;-81
2023/05/31 08:55:15;;;;;;;12.23;5.28;;;25.70;83.30;;;;;;5012122;28;20100;-80
2023/05/31 08:57:45;;;;;;;10.32;5.47;;;25.80;82.90;;;;;;5006572;28;20101;-81
2023/05/31 09:00:12;;;;;;;14.45;5.53;;;25.90;82.20;;;;;;5007895;28;20091;-80
2023/05/31 09:02:38;;;;;;;15.27;6.45;;;26.30;81.70;;;;;;5012160;28;20049;-79
2023/05/31 09:05:10;;;;;;;12.25;5.47;;;26.40;80.30;;;;;;5012577;28;20018;-81
2023/05/31 09:07:37;;;;;;;9.85;4.90;;;26.60;78.50;;;;;;5017522;28;20180;-80
2023/05/31 09:10:06;;;;;;;7.50;5.32;;;26.60;77.50;;;;;;5010859;28;20063;-81
2023/05/31 09:12:32;;;;;;;10.77;4.68;;;26.40;77.00;;;;;;5014119;28;20026;-81
2023/05/31 09:14:59;;;;;;;12.95;4.97;;;26.40;77.60;;;;;;5014623;28;20027;-80
2023/05/31 09:17:24;;;;;;;11.07;4.78;;;26.60;75.30;;;;;;5013186;28;20043;-82
2023/05/31 09:19:52;;;;;;;11.40;4.72;;;26.90;77.20;;;;;;5013258;28;20014;-80
2023/05/31 09:22:20;;;;;;;14.43;4.15;;;27.20;74.90;;;;;;5013414;28;20037;-80
2023/05/31 09:24:59;;;;;;;7.55;4.30;;;27.30;72.30;;;;;;5005489;28;20098;-80
2023/05/31 09:27:26;;;;;;;13.90;4.30;;;27.40;72.10;;;;;;5006327;28;20029;-81
2023/05/31 09:29:53;;;;;;;9.23;3.88;;;27.60;69.90;;;;;;5013174;28;20463;-82
2023/05/31 09:32:19;;;;;;;6.32;3.90;;;27.60;70.20;;;;;;5006622;28;20124;-82
2023/05/31 09:34:48;;;;;;;11.20;4.90;;;27.80;70.40;;;;;;5009788;28;20104;-80
2023/05/31 09:37:24;;;;;;;15.10;4.43;;;28.10;69.40;;;;;;5008088;28;20037;-81
2023/05/31 09:39:56;;;;;;;9.80;3.85;;;28.50;69.10;;;;;;5009035;28;20052;-79
2023/05/31 09:42:24;;;;;;;8.05;3.08;;;28.50;66.10;;;;;;5015387;28;20544;-80
2023/05/31 09:44:50;;;;;;;7.10;3.45;;;28.40;63.00;;;;;;5008485;28;20104;-80
2023/05/31 09:47:16;;;;;;;9.70;4.38;;;28.50;63.30;;;;;;5007790;28;20431;-80
2023/05/31 09:49:46;;;;;;;8.35;3.45;;;28.80;63.20;;;;;;5008938;28;20033;-80
2023/05/31 09:52:15;;;;;;;9.10;3.95;;;28.90;62.70;;;;;;5010512;28;20280;-80
2023/05/31 09:54:43;;;;;;;6.53;3.00;;;28.90;61.90;;;;;;5007176;28;20032;-80
2023/05/31 09:57:32;;;;;;;6.35;3.75;;;29.00;60.90;;;;;;5008138;28;20025;-82
2023/05/31 10:00:00;;;;;;;12.65;3.55;;;29.00;60.80;;;;;;5009918;28;20028;-79
2023/05/31 10:02:27;;;;;;;7.15;3.03;;;29.10;61.10;;;;;;5014639;28;20079;-80
2023/05/31 10:04:56;;;;;;;8.82;2.72;;;29.10;59.60;;;;;;5003901;28;20121;-80
2023/05/31 10:07:23;;;;;;;6.88;2.88;;;29.00;57.60;;;;;;5021261;28;20028;-80
2023/05/31 10:09:49;;;;;;;9.02;3.00;;;29.20;58.60;;;;;;5016466;28;20029;-80
2023/05/31 10:12:18;;;;;;;7.13;2.95;;;29.30;58.80;;;;;;5014677;28;20040;-82
2023/05/31 10:14:49;;;;;;;4.82;3.03;;;29.80;59.20;;;;;;5009589;28;20022;-81
2023/05/31 10:17:20;;;;;;;8.02;2.72;;;30.10;56.90;;;;;;5002266;28;20638;-81
2023/05/31 10:19:53;;;;;;;8.25;3.33;;;30.30;56.40;;;;;;5008518;28;20061;-80
2023/05/31 10:22:23;;;;;;;10.27;3.35;;;30.30;56.70;;;;;;5008837;28;20113;-80
2023/05/31 10:25:06;;;;;;;7.57;2.80;;;30.50;57.00;;;;;;5013612;28;20038;-82
2023/05/31 10:27:39;;;;;;;;;;;30.60;55.00;;;;;;5003846;28;20097;-80
2023/05/31 10:30:05;;;;;;;8.52;3.05;;;30.60;54.20;;;;;;5009029;28;19908;-81
2023/05/31 10:32:43;;;;;;;10.00;3.05;;;30.50;54.20;;;;;;5005334;28;20030;-81
2023/05/31 10:35:10;;;;;;;6.38;2.92;;;30.40;53.70;;;;;;5011868;28;20037;-80
2023/05/31 10:37:38;;;;;;;7.97;2.85;;;30.30;54.20;;;;;;5009334;28;20060;-81
2023/05/31 10:40:27;;;;;;;7.18;2.90;;;30.10;54.00;;;;;;5011292;28;20104;-82
2023/05/31 10:43:38;;;;;;;8.80;3.17;;;30.40;55.30;;;;;;5012606;28;20139;-81
2023/05/31 10:46:19;;;;;;;7.22;2.90;;;30.30;54.20;;;;;;4989434;28;20083;-80
2023/05/31 10:48:55;;;;;;;8.98;3.65;;;30.70;54.80;;;;;;5012332;28;20057;-80
2023/05/31 10:51:38;;;;;;;6.78;3.53;;;31.10;54.30;;;;;;5004880;28;20034;-81
2023/05/31 10:54:04;;;;;;;10.75;3.03;;;31.30;55.00;;;;;;5002657;28;20068;-81
2023/05/31 10:56:29;;;;;;;9.15;3.47;;;31.60;53.60;;;;;;5003139;28;20193;-81
2023/05/31 10:58:55;;;;;;;8.20;2.88;;;31.70;53.50;;;;;;4991943;28;20018;-81
2023/05/31 11:01:21;;;;;;;7.50;2.95;;;31.50;52.40;;;;;;4999018;28;20117;-81
2023/05/31 11:03:51;;;;;;;6.68;3.35;;;31.20;52.50;;;;;;4993787;28;20033;-80
2023/05/31 11:06:38;;;;;;;10.77;3.90;;;30.80;52.10;;;;;;4992745;28;20037;-80
2023/05/31 11:09:15;;;;;;;6.32;2.92;;;30.70;52.80;;;;;;4992493;28;20026;-81
2023/05/31 11:11:41;;;;;;;7.03;3.13;;;30.50;53.20;;;;;;5009755;28;20120;-81
2023/05/31 11:14:26;;;;;;;9.15;3.85;;;30.50;53.60;;;;;;5000387;28;20018;-81
2023/05/31 11:17:03;;;;;;;8.20;3.40;;;30.70;53.40;;;;;;5006580;28;20070;-80
2023/05/31 11:19:34;;;;;;;7.35;3.08;;;30.40;54.10;;;;;;4991609;28;20034;-81
2023/05/31 11:22:07;;;;;;;8.48;3.22;;;30.60;54.00;;;;;;4993103;28;20027;-82
2023/05/31 11:24:33;;;;;;;6.95;3.25;;;30.70;54.20;;;;;;4997546;28;20025;-81
2023/05/31 11:27:03;;;;;;;6.65;2.90;;;30.90;54.10;;;;;;5008402;28;20018;-81
2023/05/31 11:29:46;;;;;;;4.63;2.97;;;30.80;53.60;;;;;;5001027;28;20217;-80
2023/05/31 11:32:13;;;;;;;7.25;3.60;;;30.70;53.50;;;;;;4993362;28;20510;-80
2023/05/31 11:34:56;;;;;;;9.88;4.18;;;30.70;55.10;;;;;;4995992;28;20022;-81
2023/05/31 11:37:26;;;;;;;11.57;4.05;;;30.60;54.10;;;;;;4998423;28;20030;-80
2023/05/31 11:39:54;;;;;;;8.15;3.30;;;30.50;53.70;;;;;;4991383;28;20476;-80
2023/05/31 11:42:21;;;;;;;11.80;3.85;;;30.50;53.80;;;;;;4993017;28;20583;-82
2023/05/31 11:44:47;;;;;;;6.63;3.47;;;30.60;54.00;;;;;;4998460;28;20026;-80
2023/05/31 11:47:20;;;;;;;6.75;3.28;;;30.70;52.90;;;;;;4996385;28;20033;-81
2023/05/31 11:49:48;;;;;;;5.93;3.33;;;30.70;53.20;;;;;;4992341;28;20025;-80
2023/05/31 11:52:21;;;;;;;6.80;3.72;;;30.50;53.10;;;;;;4994656;28;20041;-80
2023/05/31 11:54:48;;;;;;;7.78;3.33;;;30.40;53.20;;;;;;5006173;28;20026;-80
2023/05/31 11:57:16;;;;;;;6.05;3.08;;;30.40;54.00;;;;;;4993398;28;20022;-81
2023/05/31 11:59:42;;;;;;;7.97;2.83;;;30.50;53.40;;;;;;4993875;28;20063;-82
2023/05/31 12:02:10;;;;;;;7.88;2.97;;;30.70;53.20;;;;;;4990071;28;20228;-81
2023/05/31 12:04:37;;;;;;;6.20;3.10;;;30.40;53.70;;;;;;4998614;28;20117;-81
2023/05/31 12:07:09;;;;;;;6.95;3.15;;;30.70;52.90;;;;;;5002377;28;21225;-81
2023/05/31 12:09:35;;;;;;;7.72;3.20;;;30.90;53.00;;;;;;4999422;28;20052;-81
2023/05/31 12:12:03;;;;;;;7.57;3.25;;;31.00;52.50;;;;;;4992184;28;20158;-81
2023/05/31 12:14:29;;;;;;;14.45;3.78;;;31.00;52.30;;;;;;4991431;28;20389;-81
2023/05/31 12:16:55;;;;;;;11.18;5.25;;;31.00;52.30;;;;;;4990914;28;20424;-81
2023/05/31 12:19:21;;;;;;;6.07;3.20;;;30.90;52.90;;;;;;4992119;28;20048;-81
2023/05/31 12:21:50;;;;;;;11.27;3.47;;;31.10;52.40;;;;;;4998794;28;20030;-80
2023/05/31 12:24:17;;;;;;;8.25;3.30;;;31.00;51.80;;;;;;4986024;28;20370;-81
2023/05/31 12:26:49;;;;;;;6.78;3.05;;;30.70;52.90;;;;;;4997441;28;20022;-81
2023/05/31 12:29:16;;;;;;;9.05;3.30;;;30.50;53.80;;;;;;4990029;28;20581;-81
2023/05/31 12:31:42;;;;;;;5.15;2.80;;;30.80;52.70;;;;;;4989739;28;20066;-81
2023/05/31 12:34:12;;;;;;;13.50;3.85;;;31.00;51.60;;;;;;4996942;28;20159;-81
2023/05/31 12:36:48;;;;;;;6.03;2.92;;;31.10;51.90;;;;;;4998495;28;20125;-81
2023/05/31 12:39:18;;;;;;;7.38;3.33;;;31.10;51.50;;;;;;5012828;28;20073;-80
2023/05/31 12:41:46;;;;;;;7.18;3.28;;;31.20;52.50;;;;;;4991492;28;20026;-81
2023/05/31 12:44:18;;;;;;;6.28;3.05;;;31.50;51.80;;;;;;4992398;28;20037;-81